createdAt,value
2017-09-20T00:00:15.572Z,3.90
2017-09-20T00:02:42.003Z,3.90
2017-09-20T00:05:07.787Z,3.70
2017-09-20T00:07:33.540Z,5.50
2017-09-20T00:09:59.310Z,5.60
2017-09-20T00:12:25.096Z,4.90
2017-09-20T00:14:50.851Z,5.50
2017-09-20T00:17:17.619Z,6.63
2017-09-20T00:19:43.389Z,5.25
2017-09-20T00:22:09.163Z,7.43
2017-09-20T00:24:34.931Z,2.70
2017-09-20T00:27:00.674Z,5.13
2017-09-20T00:29:26.455Z,3.83
2017-09-20T00:31:52.199Z,4.63
2017-09-20T00:34:17.988Z,7.13
2017-09-20T00:36:43.823Z,7.40
2017-09-20T00:39:09.579Z,8.13
2017-09-20T00:41:35.365Z,6.20
2017-09-20T00:44:01.127Z,5.40
2017-09-20T00:46:26.982Z,6.83
2017-09-20T00:48:52.733Z,7.00
2017-09-20T00:51:18.547Z,6.13
2017-09-20T00:53:44.331Z,9.67
2017-09-20T00:56:10.112Z,5.87
2017-09-20T00:58:35.881Z,8.90
2017-09-20T01:01:01.722Z,5.73
2017-09-20T01:03:27.464Z,9.93
2017-09-20T01:05:53.279Z,8.70
2017-09-20T01:08:19.054Z,6.33
2017-09-20T01:10:44.847Z,5.50
2017-09-20T01:13:10.583Z,10.40
2017-09-20T01:15:36.415Z,5.67
2017-09-20T01:18:02.163Z,6.13
2017-09-20T01:20:40.455Z,7.37
2017-09-20T01:26:19.923Z,9.98
2017-09-20T01:28:45.706Z,8.73
2017-09-20T01:31:11.452Z,5.87
2017-09-20T01:33:37.241Z,9.13
2017-09-20T01:36:02.995Z,12.63
2017-09-20T01:38:28.739Z,8.23
2017-09-20T01:40:55.258Z,9.93
2017-09-20T01:43:21.025Z,8.80
2017-09-20T01:45:46.771Z,8.50
2017-09-20T01:48:12.529Z,6.37
2017-09-20T01:50:38.303Z,6.10
2017-09-20T01:53:04.079Z,5.97
2017-09-20T01:55:29.823Z,5.17
2017-09-20T01:57:55.611Z,5.90
2017-09-20T02:00:21.380Z,6.63
2017-09-20T02:02:47.780Z,7.97
2017-09-20T02:05:13.606Z,7.05
2017-09-20T02:07:39.383Z,8.07
2017-09-20T02:10:05.166Z,6.30
2017-09-20T02:12:30.908Z,9.80
2017-09-20T02:14:56.691Z,9.40
2017-09-20T02:17:22.479Z,11.10
2017-09-20T02:19:48.223Z,10.13
2017-09-20T02:22:13.976Z,8.73
2017-09-20T02:24:39.735Z,8.70
2017-09-20T02:27:05.555Z,8.33
2017-09-20T02:29:31.291Z,13.23
2017-09-20T02:31:57.071Z,7.53
2017-09-20T02:34:22.831Z,8.60
2017-09-20T02:36:49.059Z,9.80
2017-09-20T02:39:15.708Z,8.77
2017-09-20T02:41:41.462Z,10.65
2017-09-20T02:44:07.218Z,12.60
2017-09-20T02:46:33.001Z,10.67
2017-09-20T02:48:58.779Z,6.33
2017-09-20T02:51:24.563Z,10.10
2017-09-20T02:53:50.337Z,7.20
2017-09-20T02:56:16.176Z,8.80
2017-09-20T02:58:42.029Z,7.37
2017-09-20T03:01:07.812Z,8.80
2017-09-20T03:03:33.607Z,4.90
2017-09-20T03:05:59.375Z,8.10
2017-09-20T03:08:25.135Z,11.00
2017-09-20T03:10:50.907Z,10.53
2017-09-20T03:13:16.639Z,9.30
2017-09-20T03:15:42.515Z,17.13
2017-09-20T03:18:08.271Z,11.43
2017-09-20T03:20:34.063Z,13.57
2017-09-20T03:22:59.811Z,16.43
2017-09-20T03:25:25.623Z,8.87
2017-09-20T03:27:51.368Z,12.37
2017-09-20T03:30:17.116Z,10.10
2017-09-20T03:32:42.887Z,13.90
2017-09-20T03:35:08.623Z,11.50
2017-09-20T03:37:34.370Z,9.30
2017-09-20T03:40:00.163Z,17.00
2017-09-20T03:42:25.905Z,13.97
2017-09-20T03:44:51.655Z,16.80
2017-09-20T03:47:17.480Z,11.53
2017-09-20T03:49:43.211Z,13.83
2017-09-20T03:52:08.951Z,11.00
2017-09-20T03:54:34.728Z,15.40
2017-09-20T03:57:00.528Z,11.80
2017-09-20T03:59:26.291Z,15.23
2017-09-20T04:01:52.060Z,13.87
2017-09-20T04:04:17.823Z,13.50
2017-09-20T04:06:43.666Z,18.53
2017-09-20T04:09:09.407Z,16.60
2017-09-20T04:11:35.227Z,12.33
2017-09-20T04:14:01.036Z,21.73
2017-09-20T04:16:26.895Z,13.73
2017-09-20T04:18:52.645Z,15.80
2017-09-20T04:21:18.419Z,30.93
2017-09-20T04:23:44.275Z,14.33
2017-09-20T04:26:10.028Z,19.50
2017-09-20T04:28:35.791Z,19.63
2017-09-20T04:31:01.559Z,26.03
2017-09-20T04:33:27.327Z,19.50
2017-09-20T04:35:53.072Z,15.30
2017-09-20T04:38:18.840Z,21.00
2017-09-20T04:40:44.627Z,14.80
2017-09-20T04:43:10.463Z,12.40
2017-09-20T04:45:36.247Z,15.00
2017-09-20T04:48:02.003Z,27.87
2017-09-20T04:50:27.822Z,18.17
2017-09-20T04:52:53.566Z,18.30
2017-09-20T04:55:19.315Z,28.90
2017-09-20T04:57:45.138Z,24.13
2017-09-20T05:00:10.975Z,15.83
2017-09-20T05:02:36.739Z,21.77
2017-09-20T05:05:02.495Z,15.37
2017-09-20T05:07:28.344Z,22.37
2017-09-20T05:09:54.107Z,17.77
2017-09-20T05:12:19.875Z,17.40
2017-09-20T05:14:46.407Z,16.17
2017-09-20T05:17:12.159Z,17.05
2017-09-20T05:19:37.992Z,13.70
2017-09-20T05:22:03.775Z,22.83
2017-09-20T05:24:29.516Z,18.73
2017-09-20T05:26:55.296Z,19.60
2017-09-20T05:29:21.061Z,16.33
2017-09-20T05:31:46.847Z,21.60
2017-09-20T05:34:12.627Z,17.90
2017-09-20T05:36:38.427Z,17.37
2017-09-20T05:39:04.171Z,14.30
2017-09-20T05:41:29.919Z,13.40
2017-09-20T05:43:56.787Z,22.37
2017-09-20T05:46:22.536Z,18.95
2017-09-20T05:48:48.279Z,16.33
2017-09-20T05:51:14.174Z,20.80
2017-09-20T05:53:39.987Z,20.63
2017-09-20T05:56:05.779Z,41.67
2017-09-20T05:58:31.564Z,23.10
2017-09-20T06:00:57.355Z,17.80
2017-09-20T06:03:23.135Z,19.53
2017-09-20T06:05:48.868Z,18.50
2017-09-20T06:08:14.627Z,22.03
2017-09-20T06:10:40.417Z,16.47
2017-09-20T06:13:06.262Z,22.97
2017-09-20T06:15:32.039Z,14.73
2017-09-20T06:17:57.845Z,19.07
2017-09-20T06:20:23.591Z,15.57
2017-09-20T06:22:50.424Z,20.20
2017-09-20T06:25:16.239Z,20.75
2017-09-20T06:27:42.079Z,18.67
2017-09-20T06:30:07.835Z,18.27
2017-09-20T06:32:33.579Z,13.23
2017-09-20T06:34:59.454Z,16.40
2017-09-20T06:37:25.231Z,15.93
2017-09-20T06:39:51.079Z,20.27
2017-09-20T06:42:16.927Z,16.03
2017-09-20T06:44:42.705Z,19.23
2017-09-20T06:47:08.455Z,16.80
2017-09-20T06:49:34.307Z,14.97
2017-09-20T06:52:00.156Z,19.60
2017-09-20T06:54:25.972Z,12.80
2017-09-20T06:56:51.776Z,12.33
2017-09-20T06:59:17.590Z,17.37
2017-09-20T07:01:43.404Z,19.50
2017-09-20T07:04:09.790Z,27.20
2017-09-20T07:06:35.577Z,21.10
2017-09-20T07:09:01.336Z,16.83
2017-09-20T07:11:27.120Z,14.90
2017-09-20T07:13:53.053Z,21.60
2017-09-20T07:16:18.792Z,17.63
2017-09-20T07:18:44.551Z,17.40
2017-09-20T07:21:10.996Z,16.23
2017-09-20T07:23:36.797Z,10.63
2017-09-20T07:26:02.600Z,13.10
2017-09-20T07:28:28.451Z,15.40
2017-09-20T07:30:54.201Z,17.37
2017-09-20T07:33:20.103Z,14.87
2017-09-20T07:35:45.861Z,15.83
2017-09-20T07:38:12.699Z,18.37
2017-09-20T07:40:38.474Z,13.70
2017-09-20T07:43:04.237Z,17.00
2017-09-20T07:45:30.022Z,13.83
2017-09-20T07:47:55.773Z,11.30
2017-09-20T07:50:21.611Z,12.20
2017-09-20T07:52:47.376Z,15.83
2017-09-20T07:55:13.127Z,11.17
2017-09-20T07:57:38.927Z,12.70
2017-09-20T08:00:04.677Z,15.90
2017-09-20T08:02:30.503Z,11.90
2017-09-20T08:04:56.300Z,12.43
2017-09-20T08:07:22.047Z,17.70
2017-09-20T08:09:47.807Z,21.83
2017-09-20T08:12:13.567Z,15.13
2017-09-20T08:14:39.356Z,8.53
2017-09-20T08:17:05.090Z,10.90
2017-09-20T08:19:30.903Z,10.90
2017-09-20T08:21:56.717Z,9.20
2017-09-20T08:24:22.491Z,8.37
2017-09-20T08:26:48.240Z,8.80
2017-09-20T08:29:14.119Z,7.63
2017-09-20T08:31:39.942Z,8.70
2017-09-20T08:34:05.840Z,9.10
2017-09-20T08:36:31.623Z,9.43
2017-09-20T08:38:57.400Z,9.20
2017-09-20T08:41:23.195Z,12.83
2017-09-20T08:43:48.983Z,12.83
2017-09-20T08:46:14.791Z,13.00
2017-09-20T08:48:40.532Z,11.23
2017-09-20T08:51:06.316Z,10.93
2017-09-20T08:53:32.093Z,13.43
2017-09-20T08:55:57.875Z,13.50
2017-09-20T08:58:23.654Z,18.27
2017-09-20T09:00:49.391Z,16.50
2017-09-20T09:03:15.191Z,13.27
2017-09-20T09:05:40.960Z,12.10
2017-09-20T09:08:06.814Z,14.70
2017-09-20T09:10:32.623Z,12.43
2017-09-20T09:12:58.384Z,11.13
2017-09-20T09:15:24.215Z,12.23
2017-09-20T09:35:12.250Z,11.13
2017-09-20T09:57:38.347Z,16.20
2017-09-20T10:20:03.731Z,19.33
2017-09-20T10:22:29.512Z,17.77
2017-09-20T10:42:05.089Z,21.00
2017-09-20T10:44:30.874Z,12.37
2017-09-20T10:47:20.587Z,8.60
2017-09-20T11:06:32.324Z,14.80
2017-09-20T11:26:07.032Z,8.20
2017-09-20T11:45:13.520Z,11.90
2017-09-20T11:48:11.156Z,14.37
2017-09-20T12:07:20.644Z,12.50
2017-09-20T12:10:18.375Z,13.10
2017-09-20T12:29:26.379Z,10.27
2017-09-20T12:48:35.944Z,11.83
2017-09-20T12:51:33.591Z,12.20
2017-09-20T12:54:30.639Z,16.83
2017-09-20T12:57:10.543Z,12.13
2017-09-20T13:16:45.173Z,9.50
2017-09-20T13:19:10.995Z,10.43
2017-09-20T13:38:44.835Z,16.90
2017-09-20T13:57:54.888Z,14.10
2017-09-20T14:20:16.670Z,13.13
2017-09-20T14:42:39.135Z,9.00
2017-09-20T14:45:35.811Z,7.90
2017-09-20T15:04:40.804Z,12.90
2017-09-20T15:07:38.603Z,12.37
2017-09-20T15:26:45.367Z,11.60
2017-09-20T15:45:53.947Z,11.17
2017-09-20T16:08:16.611Z,9.57
2017-09-20T16:11:14.377Z,18.13
2017-09-20T16:17:01.751Z,11.10
2017-09-20T16:19:50.703Z,10.83
2017-09-20T16:22:47.382Z,11.70
2017-09-20T16:45:11.967Z,19.93
2017-09-20T16:48:09.731Z,19.10
2017-09-20T17:07:17.912Z,17.73
2017-09-20T17:10:14.931Z,13.00
2017-09-20T17:29:24.007Z,24.73
2017-09-20T17:32:21.483Z,16.60
2017-09-20T17:51:36.552Z,18.93
2017-09-20T17:54:33.743Z,16.50
2017-09-20T18:13:49.456Z,19.20
2017-09-20T18:16:47.064Z,25.20
2017-09-20T18:36:04.064Z,21.80
2017-09-20T18:39:01.455Z,20.50
2017-09-20T18:41:59.226Z,18.77
2017-09-20T19:01:07.272Z,18.92
2017-09-20T19:04:04.905Z,20.67
2017-09-20T19:07:02.961Z,20.92
2017-09-20T19:09:59.819Z,19.25
2017-09-20T19:12:56.843Z,22.55
2017-09-20T19:15:22.610Z,24.85
2017-09-20T19:18:12.083Z,19.90
2017-09-20T19:21:09.115Z,17.98
2017-09-20T19:36:58.007Z,25.17
2017-09-20T19:39:47.012Z,23.87
2017-09-20T19:42:44.734Z,31.80
2017-09-20T20:01:53.864Z,21.98
2017-09-20T20:04:51.566Z,19.60
2017-09-20T20:20:41.399Z,35.72
2017-09-20T20:40:15.106Z,29.05
2017-09-20T20:42:40.919Z,31.77
2017-09-20T21:02:17.835Z,33.83
2017-09-20T21:04:43.643Z,38.65
2017-09-20T21:07:33.415Z,41.40
2017-09-20T21:10:31.405Z,32.20
2017-09-20T21:32:58.189Z,28.42
2017-09-20T21:35:56.268Z,26.75
2017-09-20T21:38:53.290Z,21.30
2017-09-20T21:48:15.979Z,20.33
2017-09-20T21:51:05.559Z,27.58
2017-09-20T21:54:02.782Z,17.92
2017-09-20T21:56:59.691Z,25.60
2017-09-20T21:59:56.255Z,20.60
2017-09-20T22:02:53.571Z,20.75
2017-09-20T22:05:50.970Z,18.48
2017-09-20T22:28:16.926Z,19.87
2017-09-20T22:31:13.977Z,19.00
2017-09-20T22:33:39.755Z,20.08
2017-09-20T22:36:29.187Z,17.40
2017-09-20T22:39:26.340Z,18.90
2017-09-20T22:55:18.020Z,17.67
2017-09-20T22:58:07.275Z,17.23
2017-09-20T23:01:05.164Z,19.75
2017-09-20T23:16:55.911Z,19.10
2017-09-20T23:19:45.199Z,22.27
2017-09-20T23:22:43.124Z,18.70
2017-09-20T23:25:40.215Z,17.45
2017-09-20T23:28:38.210Z,20.60
2017-09-20T23:38:27.790Z,18.00
2017-09-20T23:41:17.491Z,18.40
2017-09-20T23:44:14.663Z,24.17
